Cairo, Missouri
Current Conditions -  °F | °C
As of 1:15 PM on Monday 22 Dec 2014 (Local Time) from KVER Reporting Station
Drizzle Drizzle  
Wind Chill: 42°   Ceiling: 600
Heat Index: 46°   Visibility: 5mi
Dew Point: 46°   Wind: 7mph
Humidity: 100%   Direction: 140°SE
Pressure: 29.51"   Gusts: NA
Location:  39.51°N, 92.44°W
Report Text: KVER 221915Z AUTO 14006KT 5SM DZ OVC006 08/08 A2951 RMK AO2 P0001 T00750075
Loading
Personal Weather Stations






























Interactive Weather Map New forecast layout! Learn more

10-Day Weather Forecast

Advertisements
Track Severe Weather on mobile